sensor_id;sensor_type;location;lat;lon;timestamp;temperature;humidity
40932;DHT22;36257;46.052;12.540;2022-07-18T00:00:06;25.50;62.90
40932;DHT22;36257;46.052;12.540;2022-07-18T00:02:33;25.50;62.90
40932;DHT22;36257;46.052;12.540;2022-07-18T00:04:58;25.50;63.10
40932;DHT22;36257;46.052;12.540;2022-07-18T00:07:24;25.40;63.20
40932;DHT22;36257;46.052;12.540;2022-07-18T00:09:49;25.40;63.10
40932;DHT22;36257;46.052;12.540;2022-07-18T00:12:15;25.40;63.00
40932;DHT22;36257;46.052;12.540;2022-07-18T00:14:41;25.30;63.10
40932;DHT22;36257;46.052;12.540;2022-07-18T00:17:08;25.40;63.30
40932;DHT22;36257;46.052;12.540;2022-07-18T00:19:34;25.40;63.00
40932;DHT22;36257;46.052;12.540;2022-07-18T00:22:00;25.30;62.90
40932;DHT22;36257;46.052;12.540;2022-07-18T00:24:26;25.30;63.40
40932;DHT22;36257;46.052;12.540;2022-07-18T00:26:52;25.20;63.70
40932;DHT22;36257;46.052;12.540;2022-07-18T00:29:17;25.20;63.30
40932;DHT22;36257;46.052;12.540;2022-07-18T00:31:43;25.10;63.50
40932;DHT22;36257;46.052;12.540;2022-07-18T00:34:09;25.10;63.50
40932;DHT22;36257;46.052;12.540;2022-07-18T00:36:35;25.10;62.80
40932;DHT22;36257;46.052;12.540;2022-07-18T00:39:01;25.10;63.20
40932;DHT22;36257;46.052;12.540;2022-07-18T00:41:27;25.10;63.70
40932;DHT22;36257;46.052;12.540;2022-07-18T00:43:53;25.10;63.40
40932;DHT22;36257;46.052;12.540;2022-07-18T00:46:26;25.00;62.70
40932;DHT22;36257;46.052;12.540;2022-07-18T00:48:52;25.00;63.20
40932;DHT22;36257;46.052;12.540;2022-07-18T00:51:18;24.90;63.40
40932;DHT22;36257;46.052;12.540;2022-07-18T00:53:45;24.90;63.60
40932;DHT22;36257;46.052;12.540;2022-07-18T00:56:12;24.90;64.20
40932;DHT22;36257;46.052;12.540;2022-07-18T00:58:38;24.80;64.40
40932;DHT22;36257;46.052;12.540;2022-07-18T01:01:04;24.80;64.40
40932;DHT22;36257;46.052;12.540;2022-07-18T01:03:48;24.80;63.90
40932;DHT22;36257;46.052;12.540;2022-07-18T01:06:14;24.80;63.90
40932;DHT22;36257;46.052;12.540;2022-07-18T01:08:42;24.80;63.60
40932;DHT22;36257;46.052;12.540;2022-07-18T01:11:09;24.80;63.90
40932;DHT22;36257;46.052;12.540;2022-07-18T01:13:35;24.70;64.00
40932;DHT22;36257;46.052;12.540;2022-07-18T01:16:01;24.70;63.80
40932;DHT22;36257;46.052;12.540;2022-07-18T01:18:27;24.80;63.40
40932;DHT22;36257;46.052;12.540;2022-07-18T01:20:53;24.80;63.10
40932;DHT22;36257;46.052;12.540;2022-07-18T01:23:18;24.80;63.30
40932;DHT22;36257;46.052;12.540;2022-07-18T01:25:44;24.80;63.20
40932;DHT22;36257;46.052;12.540;2022-07-18T01:28:10;24.80;63.60
40932;DHT22;36257;46.052;12.540;2022-07-18T01:30:35;24.80;63.50
40932;DHT22;36257;46.052;12.540;2022-07-18T01:33:02;24.80;63.10
40932;DHT22;36257;46.052;12.540;2022-07-18T01:35:29;24.80;63.20
40932;DHT22;36257;46.052;12.540;2022-07-18T01:37:56;24.80;62.90
40932;DHT22;36257;46.052;12.540;2022-07-18T01:40:23;24.70;63.20
40932;DHT22;36257;46.052;12.540;2022-07-18T01:42:49;24.70;63.20
40932;DHT22;36257;46.052;12.540;2022-07-18T01:45:17;24.80;63.20
40932;DHT22;36257;46.052;12.540;2022-07-18T01:47:43;24.80;63.20
40932;DHT22;36257;46.052;12.540;2022-07-18T01:50:10;24.70;63.30
40932;DHT22;36257;46.052;12.540;2022-07-18T01:52:36;24.70;63.40
40932;DHT22;36257;46.052;12.540;2022-07-18T01:55:04;24.70;63.90
40932;DHT22;36257;46.052;12.540;2022-07-18T01:57:30;24.60;64.00
40932;DHT22;36257;46.052;12.540;2022-07-18T01:59:56;24.50;63.90
40932;DHT22;36257;46.052;12.540;2022-07-18T02:02:21;24.50;63.90
40932;DHT22;36257;46.052;12.540;2022-07-18T02:04:47;24.50;64.10
40932;DHT22;36257;46.052;12.540;2022-07-18T02:07:28;24.50;64.00
40932;DHT22;36257;46.052;12.540;2022-07-18T02:09:54;24.40;64.30
40932;DHT22;36257;46.052;12.540;2022-07-18T02:12:20;24.40;64.60
40932;DHT22;36257;46.052;12.540;2022-07-18T02:14:45;24.40;64.40
40932;DHT22;36257;46.052;12.540;2022-07-18T02:17:11;24.40;64.40
40932;DHT22;36257;46.052;12.540;2022-07-18T02:19:37;24.40;64.30
40932;DHT22;36257;46.052;12.540;2022-07-18T02:22:02;24.40;64.20
40932;DHT22;36257;46.052;12.540;2022-07-18T02:24:28;24.40;64.30
40932;DHT22;36257;46.052;12.540;2022-07-18T02:26:54;24.40;64.60
40932;DHT22;36257;46.052;12.540;2022-07-18T02:29:19;24.30;66.00
40932;DHT22;36257;46.052;12.540;2022-07-18T02:31:45;24.30;66.60
40932;DHT22;36257;46.052;12.540;2022-07-18T02:34:11;24.20;66.50
40932;DHT22;36257;46.052;12.540;2022-07-18T02:36:38;24.20;66.80
40932;DHT22;36257;46.052;12.540;2022-07-18T02:39:04;24.10;66.70
40932;DHT22;36257;46.052;12.540;2022-07-18T02:41:30;24.10;66.80
40932;DHT22;36257;46.052;12.540;2022-07-18T02:43:55;24.10;66.70
40932;DHT22;36257;46.052;12.540;2022-07-18T02:46:21;24.10;66.60
40932;DHT22;36257;46.052;12.540;2022-07-18T02:48:46;24.10;67.00
40932;DHT22;36257;46.052;12.540;2022-07-18T02:51:12;24.00;67.00
40932;DHT22;36257;46.052;12.540;2022-07-18T02:53:38;24.00;66.90
40932;DHT22;36257;46.052;12.540;2022-07-18T02:56:04;23.90;67.60
40932;DHT22;36257;46.052;12.540;2022-07-18T02:58:29;23.90;68.40
40932;DHT22;36257;46.052;12.540;2022-07-18T03:00:55;23.80;68.70
40932;DHT22;36257;46.052;12.540;2022-07-18T03:03:21;23.70;69.10
40932;DHT22;36257;46.052;12.540;2022-07-18T03:05:46;23.60;69.30
40932;DHT22;36257;46.052;12.540;2022-07-18T03:08:12;23.50;69.90
40932;DHT22;36257;46.052;12.540;2022-07-18T03:10:37;23.40;70.20
40932;DHT22;36257;46.052;12.540;2022-07-18T03:13:03;23.40;70.80
40932;DHT22;36257;46.052;12.540;2022-07-18T03:15:28;23.40;70.80
40932;DHT22;36257;46.052;12.540;2022-07-18T03:17:54;23.40;70.50
40932;DHT22;36257;46.052;12.540;2022-07-18T03:20:20;23.40;70.90
40932;DHT22;36257;46.052;12.540;2022-07-18T03:22:45;23.30;71.40
40932;DHT22;36257;46.052;12.540;2022-07-18T03:25:11;23.30;71.30
40932;DHT22;36257;46.052;12.540;2022-07-18T03:27:37;23.30;71.70
40932;DHT22;36257;46.052;12.540;2022-07-18T03:30:03;23.30;72.10
40932;DHT22;36257;46.052;12.540;2022-07-18T03:32:28;23.30;72.30
40932;DHT22;36257;46.052;12.540;2022-07-18T03:34:54;23.20;72.50
40932;DHT22;36257;46.052;12.540;2022-07-18T03:37:20;23.10;72.90
40932;DHT22;36257;46.052;12.540;2022-07-18T03:39:45;23.10;73.10
40932;DHT22;36257;46.052;12.540;2022-07-18T03:42:11;23.00;73.20
40932;DHT22;36257;46.052;12.540;2022-07-18T03:44:37;22.90;73.40
40932;DHT22;36257;46.052;12.540;2022-07-18T03:47:02;22.80;73.60
40932;DHT22;36257;46.052;12.540;2022-07-18T03:49:28;22.80;73.30
40932;DHT22;36257;46.052;12.540;2022-07-18T03:51:53;22.70;73.40
40932;DHT22;36257;46.052;12.540;2022-07-18T03:54:21;22.70;73.30
40932;DHT22;36257;46.052;12.540;2022-07-18T03:56:47;22.60;73.80
40932;DHT22;36257;46.052;12.540;2022-07-18T03:59:13;22.60;74.00
40932;DHT22;36257;46.052;12.540;2022-07-18T04:01:38;22.60;74.50
40932;DHT22;36257;46.052;12.540;2022-07-18T04:04:04;22.60;74.60
40932;DHT22;36257;46.052;12.540;2022-07-18T04:06:30;22.60;74.70
40932;DHT22;36257;46.052;12.540;2022-07-18T04:08:56;22.60;74.60
40932;DHT22;36257;46.052;12.540;2022-07-18T04:11:21;22.60;74.70
40932;DHT22;36257;46.052;12.540;2022-07-18T04:13:52;22.60;74.70
40932;DHT22;36257;46.052;12.540;2022-07-18T04:16:19;22.60;74.70
40932;DHT22;36257;46.052;12.540;2022-07-18T04:18:45;22.70;75.00
40932;DHT22;36257;46.052;12.540;2022-07-18T04:21:11;22.70;74.60
40932;DHT22;36257;46.052;12.540;2022-07-18T04:23:38;22.70;74.70
40932;DHT22;36257;46.052;12.540;2022-07-18T04:26:04;22.70;74.90
40932;DHT22;36257;46.052;12.540;2022-07-18T04:28:30;22.80;75.10
40932;DHT22;36257;46.052;12.540;2022-07-18T04:30:55;22.80;75.20
40932;DHT22;36257;46.052;12.540;2022-07-18T04:33:21;22.80;75.80
40932;DHT22;36257;46.052;12.540;2022-07-18T04:35:48;22.90;76.20
40932;DHT22;36257;46.052;12.540;2022-07-18T04:38:16;22.90;75.50
40932;DHT22;36257;46.052;12.540;2022-07-18T04:40:42;22.90;75.80
40932;DHT22;36257;46.052;12.540;2022-07-18T04:43:08;22.90;76.00
40932;DHT22;36257;46.052;12.540;2022-07-18T04:45:34;22.90;76.30
40932;DHT22;36257;46.052;12.540;2022-07-18T04:48:01;22.80;76.50
40932;DHT22;36257;46.052;12.540;2022-07-18T04:50:27;22.90;75.80
40932;DHT22;36257;46.052;12.540;2022-07-18T04:52:55;22.90;75.80
40932;DHT22;36257;46.052;12.540;2022-07-18T04:55:22;23.00;74.30
40932;DHT22;36257;46.052;12.540;2022-07-18T04:57:48;23.10;73.70
40932;DHT22;36257;46.052;12.540;2022-07-18T05:00:16;23.20;73.50
40932;DHT22;36257;46.052;12.540;2022-07-18T05:02:47;23.20;72.70
40932;DHT22;36257;46.052;12.540;2022-07-18T05:05:15;23.30;72.80
40932;DHT22;36257;46.052;12.540;2022-07-18T05:07:42;23.40;72.40
40932;DHT22;36257;46.052;12.540;2022-07-18T05:10:10;23.50;72.50
40932;DHT22;36257;46.052;12.540;2022-07-18T05:12:37;23.60;71.80
40932;DHT22;36257;46.052;12.540;2022-07-18T05:15:08;23.60;72.20
40932;DHT22;36257;46.052;12.540;2022-07-18T05:17:36;23.60;72.60
40932;DHT22;36257;46.052;12.540;2022-07-18T05:20:03;23.70;72.80
40932;DHT22;36257;46.052;12.540;2022-07-18T05:22:29;23.70;73.50
40932;DHT22;36257;46.052;12.540;2022-07-18T05:24:55;23.80;73.00
40932;DHT22;36257;46.052;12.540;2022-07-18T05:27:20;23.90;72.60
40932;DHT22;36257;46.052;12.540;2022-07-18T05:29:46;23.90;72.70
40932;DHT22;36257;46.052;12.540;2022-07-18T05:32:12;24.00;71.30
40932;DHT22;36257;46.052;12.540;2022-07-18T05:34:37;24.10;70.80
40932;DHT22;36257;46.052;12.540;2022-07-18T05:37:03;24.10;70.80
40932;DHT22;36257;46.052;12.540;2022-07-18T05:39:29;24.20;70.70
40932;DHT22;36257;46.052;12.540;2022-07-18T05:41:55;24.20;70.30
40932;DHT22;36257;46.052;12.540;2022-07-18T05:44:20;24.30;69.90
40932;DHT22;36257;46.052;12.540;2022-07-18T05:46:47;24.40;69.90
40932;DHT22;36257;46.052;12.540;2022-07-18T05:49:13;24.40;70.30
40932;DHT22;36257;46.052;12.540;2022-07-18T05:51:39;24.50;70.00
40932;DHT22;36257;46.052;12.540;2022-07-18T05:54:05;24.60;70.30
40932;DHT22;36257;46.052;12.540;2022-07-18T05:56:34;24.80;69.60
40932;DHT22;36257;46.052;12.540;2022-07-18T05:58:59;24.90;68.80
40932;DHT22;36257;46.052;12.540;2022-07-18T06:01:25;25.10;68.80
40932;DHT22;36257;46.052;12.540;2022-07-18T06:03:51;25.30;69.10
40932;DHT22;36257;46.052;12.540;2022-07-18T06:06:16;25.50;66.30
40932;DHT22;36257;46.052;12.540;2022-07-18T06:08:44;25.80;64.10
40932;DHT22;36257;46.052;12.540;2022-07-18T06:11:10;25.90;66.90
40932;DHT22;36257;46.052;12.540;2022-07-18T06:13:38;26.10;65.00
40932;DHT22;36257;46.052;12.540;2022-07-18T06:16:05;26.30;64.70
40932;DHT22;36257;46.052;12.540;2022-07-18T06:18:34;26.40;63.90
40932;DHT22;36257;46.052;12.540;2022-07-18T06:21:03;26.40;64.70
40932;DHT22;36257;46.052;12.540;2022-07-18T06:23:30;26.50;65.20
40932;DHT22;36257;46.052;12.540;2022-07-18T06:25:56;26.60;64.90
40932;DHT22;36257;46.052;12.540;2022-07-18T06:28:23;26.70;63.50
40932;DHT22;36257;46.052;12.540;2022-07-18T06:30:48;26.70;64.10
40932;DHT22;36257;46.052;12.540;2022-07-18T06:33:14;26.80;63.70
40932;DHT22;36257;46.052;12.540;2022-07-18T06:35:40;26.80;65.10
40932;DHT22;36257;46.052;12.540;2022-07-18T06:38:06;26.90;63.50
40932;DHT22;36257;46.052;12.540;2022-07-18T06:40:32;26.90;62.30
40932;DHT22;36257;46.052;12.540;2022-07-18T06:42:58;26.80;62.00
40932;DHT22;36257;46.052;12.540;2022-07-18T06:45:23;26.70;62.20
40932;DHT22;36257;46.052;12.540;2022-07-18T06:47:49;26.60;64.00
40932;DHT22;36257;46.052;12.540;2022-07-18T06:50:15;26.50;63.80
40932;DHT22;36257;46.052;12.540;2022-07-18T06:52:42;26.50;63.90
40932;DHT22;36257;46.052;12.540;2022-07-18T06:55:09;26.60;64.80
40932;DHT22;36257;46.052;12.540;2022-07-18T06:57:35;26.90;64.60
40932;DHT22;36257;46.052;12.540;2022-07-18T07:00:01;27.10;62.80
40932;DHT22;36257;46.052;12.540;2022-07-18T07:02:27;27.20;62.60
40932;DHT22;36257;46.052;12.540;2022-07-18T07:04:52;27.40;62.40
40932;DHT22;36257;46.052;12.540;2022-07-18T07:07:18;27.50;62.30
40932;DHT22;36257;46.052;12.540;2022-07-18T07:09:44;27.60;61.80
40932;DHT22;36257;46.052;12.540;2022-07-18T07:12:09;27.70;62.10
40932;DHT22;36257;46.052;12.540;2022-07-18T07:14:36;27.80;62.40
40932;DHT22;36257;46.052;12.540;2022-07-18T07:17:02;27.90;62.00
40932;DHT22;36257;46.052;12.540;2022-07-18T07:19:28;28.10;61.50
40932;DHT22;36257;46.052;12.540;2022-07-18T07:21:54;28.20;61.20
40932;DHT22;36257;46.052;12.540;2022-07-18T07:24:20;28.40;61.80
40932;DHT22;36257;46.052;12.540;2022-07-18T07:26:45;28.50;61.20
40932;DHT22;36257;46.052;12.540;2022-07-18T07:29:11;28.60;60.80
40932;DHT22;36257;46.052;12.540;2022-07-18T07:31:37;28.90;61.10
40932;DHT22;36257;46.052;12.540;2022-07-18T07:34:02;29.10;59.90
40932;DHT22;36257;46.052;12.540;2022-07-18T07:36:28;29.30;60.50
40932;DHT22;36257;46.052;12.540;2022-07-18T07:38:54;29.30;59.40
40932;DHT22;36257;46.052;12.540;2022-07-18T07:41:20;29.20;59.80
40932;DHT22;36257;46.052;12.540;2022-07-18T07:43:46;29.20;59.80
40932;DHT22;36257;46.052;12.540;2022-07-18T07:46:12;29.30;58.80
40932;DHT22;36257;46.052;12.540;2022-07-18T07:48:38;29.30;60.10
40932;DHT22;36257;46.052;12.540;2022-07-18T07:51:04;29.30;59.00
40932;DHT22;36257;46.052;12.540;2022-07-18T07:53:30;29.40;58.30
40932;DHT22;36257;46.052;12.540;2022-07-18T07:55:56;29.50;59.00
40932;DHT22;36257;46.052;12.540;2022-07-18T07:58:22;29.70;56.90
40932;DHT22;36257;46.052;12.540;2022-07-18T08:00:51;29.90;57.90
40932;DHT22;36257;46.052;12.540;2022-07-18T08:03:16;30.10;58.40
40932;DHT22;36257;46.052;12.540;2022-07-18T08:05:47;30.30;56.90
40932;DHT22;36257;46.052;12.540;2022-07-18T08:08:13;30.50;59.30
40932;DHT22;36257;46.052;12.540;2022-07-18T08:10:39;30.70;57.00
40932;DHT22;36257;46.052;12.540;2022-07-18T08:13:05;30.70;54.90
40932;DHT22;36257;46.052;12.540;2022-07-18T08:15:31;30.60;57.40
40932;DHT22;36257;46.052;12.540;2022-07-18T08:17:57;30.60;55.60
40932;DHT22;36257;46.052;12.540;2022-07-18T08:20:23;30.70;56.70
40932;DHT22;36257;46.052;12.540;2022-07-18T08:23:04;30.80;55.70
40932;DHT22;36257;46.052;12.540;2022-07-18T08:25:32;31.00;56.00
40932;DHT22;36257;46.052;12.540;2022-07-18T08:27:59;31.20;56.60
40932;DHT22;36257;46.052;12.540;2022-07-18T08:30:25;31.40;56.60
40932;DHT22;36257;46.052;12.540;2022-07-18T08:32:51;31.40;53.80
40932;DHT22;36257;46.052;12.540;2022-07-18T08:35:16;31.30;53.40
40932;DHT22;36257;46.052;12.540;2022-07-18T08:37:42;31.30;57.00
40932;DHT22;36257;46.052;12.540;2022-07-18T08:40:09;31.30;55.80
40932;DHT22;36257;46.052;12.540;2022-07-18T08:42:35;31.40;54.10
40932;DHT22;36257;46.052;12.540;2022-07-18T08:45:02;31.30;55.40
40932;DHT22;36257;46.052;12.540;2022-07-18T08:47:28;31.40;54.80
40932;DHT22;36257;46.052;12.540;2022-07-18T08:49:54;31.60;54.10
40932;DHT22;36257;46.052;12.540;2022-07-18T08:52:21;31.80;53.10
40932;DHT22;36257;46.052;12.540;2022-07-18T08:54:47;31.80;52.70
40932;DHT22;36257;46.052;12.540;2022-07-18T08:57:19;31.90;53.60
40932;DHT22;36257;46.052;12.540;2022-07-18T08:59:45;32.00;53.10
40932;DHT22;36257;46.052;12.540;2022-07-18T09:02:11;32.10;51.80
40932;DHT22;36257;46.052;12.540;2022-07-18T09:04:42;32.00;54.20
40932;DHT22;36257;46.052;12.540;2022-07-18T09:07:09;32.20;54.50
40932;DHT22;36257;46.052;12.540;2022-07-18T09:09:35;32.10;51.50
40932;DHT22;36257;46.052;12.540;2022-07-18T09:12:06;32.10;54.20
40932;DHT22;36257;46.052;12.540;2022-07-18T09:14:44;32.40;54.10
40932;DHT22;36257;46.052;12.540;2022-07-18T09:17:11;32.50;53.80
40932;DHT22;36257;46.052;12.540;2022-07-18T09:19:38;32.70;53.50
40932;DHT22;36257;46.052;12.540;2022-07-18T09:22:18;32.70;52.70
40932;DHT22;36257;46.052;12.540;2022-07-18T09:30:09;33.20;52.20
40932;DHT22;36257;46.052;12.540;2022-07-18T09:32:35;33.20;50.80
40932;DHT22;36257;46.052;12.540;2022-07-18T09:35:05;33.20;51.50
40932;DHT22;36257;46.052;12.540;2022-07-18T09:37:31;33.30;50.10
40932;DHT22;36257;46.052;12.540;2022-07-18T09:42:40;33.60;51.30
40932;DHT22;36257;46.052;12.540;2022-07-18T09:45:06;33.70;51.10
40932;DHT22;36257;46.052;12.540;2022-07-18T09:47:31;33.50;52.10
40932;DHT22;36257;46.052;12.540;2022-07-18T09:49:57;33.60;52.70
40932;DHT22;36257;46.052;12.540;2022-07-18T09:52:23;33.50;53.30
40932;DHT22;36257;46.052;12.540;2022-07-18T09:54:48;33.40;51.30
40932;DHT22;36257;46.052;12.540;2022-07-18T09:57:23;33.50;50.80
40932;DHT22;36257;46.052;12.540;2022-07-18T09:59:49;33.40;53.50
40932;DHT22;36257;46.052;12.540;2022-07-18T10:02:15;33.20;51.50
40932;DHT22;36257;46.052;12.540;2022-07-18T10:04:40;33.40;55.00
40932;DHT22;36257;46.052;12.540;2022-07-18T10:07:06;33.60;51.00
40932;DHT22;36257;46.052;12.540;2022-07-18T10:09:31;33.50;53.00
40932;DHT22;36257;46.052;12.540;2022-07-18T10:11:57;33.80;51.40
40932;DHT22;36257;46.052;12.540;2022-07-18T10:14:23;33.80;53.00
40932;DHT22;36257;46.052;12.540;2022-07-18T10:16:52;34.00;51.00
40932;DHT22;36257;46.052;12.540;2022-07-18T10:19:18;34.20;51.80
40932;DHT22;36257;46.052;12.540;2022-07-18T10:21:45;34.20;51.30
40932;DHT22;36257;46.052;12.540;2022-07-18T10:24:11;34.40;52.10
40932;DHT22;36257;46.052;12.540;2022-07-18T10:26:37;34.50;50.10
40932;DHT22;36257;46.052;12.540;2022-07-18T10:31:34;34.70;50.90
40932;DHT22;36257;46.052;12.540;2022-07-18T10:36:35;34.80;48.30
40932;DHT22;36257;46.052;12.540;2022-07-18T10:42:18;34.80;49.20
40932;DHT22;36257;46.052;12.540;2022-07-18T10:55:36;34.60;48.70
40932;DHT22;36257;46.052;12.540;2022-07-18T10:58:28;34.60;52.00
40932;DHT22;36257;46.052;12.540;2022-07-18T11:00:34;34.90;48.80
40932;DHT22;36257;46.052;12.540;2022-07-18T11:13:21;34.80;49.10
40932;DHT22;36257;46.052;12.540;2022-07-18T11:19:18;34.90;49.80
40932;DHT22;36257;46.052;12.540;2022-07-18T11:21:18;35.10;50.10
40932;DHT22;36257;46.052;12.540;2022-07-18T11:23:46;35.20;49.60
40932;DHT22;36257;46.052;12.540;2022-07-18T11:26:15;35.40;50.10
40932;DHT22;36257;46.052;12.540;2022-07-18T11:28:44;35.50;50.20
40932;DHT22;36257;46.052;12.540;2022-07-18T11:31:11;35.60;47.70
40932;DHT22;36257;46.052;12.540;2022-07-18T11:33:38;35.60;47.80
40932;DHT22;36257;46.052;12.540;2022-07-18T11:38:38;35.50;47.90
40932;DHT22;36257;46.052;12.540;2022-07-18T11:41:03;35.60;47.80
40932;DHT22;36257;46.052;12.540;2022-07-18T11:43:29;35.60;48.20
40932;DHT22;36257;46.052;12.540;2022-07-18T11:48:30;35.70;47.60
40932;DHT22;36257;46.052;12.540;2022-07-18T11:50:55;35.70;49.20
40932;DHT22;36257;46.052;12.540;2022-07-18T11:53:21;35.80;49.50
40932;DHT22;36257;46.052;12.540;2022-07-18T11:55:47;35.90;48.30
40932;DHT22;36257;46.052;12.540;2022-07-18T11:58:14;35.90;48.40
40932;DHT22;36257;46.052;12.540;2022-07-18T12:00:41;35.80;48.40
40932;DHT22;36257;46.052;12.540;2022-07-18T12:03:07;35.80;47.20
40932;DHT22;36257;46.052;12.540;2022-07-18T12:05:37;35.80;47.30
40932;DHT22;36257;46.052;12.540;2022-07-18T12:13:51;35.60;49.20
40932;DHT22;36257;46.052;12.540;2022-07-18T12:16:59;35.70;48.30
40932;DHT22;36257;46.052;12.540;2022-07-18T12:19:13;35.90;49.20
40932;DHT22;36257;46.052;12.540;2022-07-18T12:29:56;36.40;48.90
40932;DHT22;36257;46.052;12.540;2022-07-18T12:32:28;36.60;47.80
40932;DHT22;36257;46.052;12.540;2022-07-18T12:34:55;36.50;46.90
40932;DHT22;36257;46.052;12.540;2022-07-18T12:37:24;36.10;46.70
40932;DHT22;36257;46.052;12.540;2022-07-18T12:39:55;36.00;47.70
40932;DHT22;36257;46.052;12.540;2022-07-18T12:42:34;35.80;48.80
40932;DHT22;36257;46.052;12.540;2022-07-18T12:45:00;35.90;48.80
40932;DHT22;36257;46.052;12.540;2022-07-18T12:47:26;35.80;48.80
40932;DHT22;36257;46.052;12.540;2022-07-18T12:49:51;35.70;49.90
40932;DHT22;36257;46.052;12.540;2022-07-18T12:52:17;35.80;49.40
40932;DHT22;36257;46.052;12.540;2022-07-18T12:54:44;36.00;49.50
40932;DHT22;36257;46.052;12.540;2022-07-18T12:57:09;36.20;49.70
40932;DHT22;36257;46.052;12.540;2022-07-18T12:59:35;36.20;48.80
40932;DHT22;36257;46.052;12.540;2022-07-18T13:02:00;36.20;48.60
40932;DHT22;36257;46.052;12.540;2022-07-18T13:04:26;36.20;47.50
40932;DHT22;36257;46.052;12.540;2022-07-18T13:06:51;36.20;49.90
40932;DHT22;36257;46.052;12.540;2022-07-18T13:09:17;36.20;48.40
40932;DHT22;36257;46.052;12.540;2022-07-18T13:11:42;36.40;47.30
40932;DHT22;36257;46.052;12.540;2022-07-18T13:14:12;36.20;48.90
40932;DHT22;36257;46.052;12.540;2022-07-18T13:16:38;36.10;47.60
40932;DHT22;36257;46.052;12.540;2022-07-18T13:19:04;36.00;47.90
40932;DHT22;36257;46.052;12.540;2022-07-18T13:21:29;35.90;49.90
40932;DHT22;36257;46.052;12.540;2022-07-18T13:23:55;35.90;47.20
40932;DHT22;36257;46.052;12.540;2022-07-18T13:26:20;35.80;50.70
40932;DHT22;36257;46.052;12.540;2022-07-18T13:28:46;36.00;48.00
40932;DHT22;36257;46.052;12.540;2022-07-18T13:31:11;36.00;49.00
40932;DHT22;36257;46.052;12.540;2022-07-18T13:33:37;35.90;48.60
40932;DHT22;36257;46.052;12.540;2022-07-18T13:36:02;35.80;48.90
40932;DHT22;36257;46.052;12.540;2022-07-18T13:38:28;35.70;47.90
40932;DHT22;36257;46.052;12.540;2022-07-18T13:40:53;35.60;49.60
40932;DHT22;36257;46.052;12.540;2022-07-18T13:43:19;35.70;47.90
40932;DHT22;36257;46.052;12.540;2022-07-18T13:45:44;35.70;49.20
40932;DHT22;36257;46.052;12.540;2022-07-18T13:48:10;35.80;49.20
40932;DHT22;36257;46.052;12.540;2022-07-18T13:50:36;35.80;47.50
40932;DHT22;36257;46.052;12.540;2022-07-18T13:53:01;35.70;49.10
40932;DHT22;36257;46.052;12.540;2022-07-18T13:55:27;35.70;47.80
40932;DHT22;36257;46.052;12.540;2022-07-18T13:57:52;35.70;50.30
40932;DHT22;36257;46.052;12.540;2022-07-18T14:00:18;35.70;47.70
40932;DHT22;36257;46.052;12.540;2022-07-18T14:02:43;35.60;48.80
40932;DHT22;36257;46.052;12.540;2022-07-18T14:05:09;35.40;47.90
40932;DHT22;36257;46.052;12.540;2022-07-18T14:07:35;35.30;49.50
40932;DHT22;36257;46.052;12.540;2022-07-18T14:10:00;35.10;48.70
40932;DHT22;36257;46.052;12.540;2022-07-18T14:12:26;35.00;49.50
40932;DHT22;36257;46.052;12.540;2022-07-18T14:14:51;35.00;48.50
40932;DHT22;36257;46.052;12.540;2022-07-18T14:17:17;35.20;48.40
40932;DHT22;36257;46.052;12.540;2022-07-18T14:19:42;35.10;48.00
40932;DHT22;36257;46.052;12.540;2022-07-18T14:22:08;35.00;48.60
40932;DHT22;36257;46.052;12.540;2022-07-18T14:24:37;35.00;50.20
40932;DHT22;36257;46.052;12.540;2022-07-18T14:27:03;35.10;49.00
40932;DHT22;36257;46.052;12.540;2022-07-18T14:29:28;35.30;50.50
40932;DHT22;36257;46.052;12.540;2022-07-18T14:31:54;35.40;48.80
40932;DHT22;36257;46.052;12.540;2022-07-18T14:34:19;35.30;48.20
40932;DHT22;36257;46.052;12.540;2022-07-18T14:36:45;35.30;48.70
40932;DHT22;36257;46.052;12.540;2022-07-18T14:39:10;35.30;48.40
40932;DHT22;36257;46.052;12.540;2022-07-18T14:41:36;35.20;49.80
40932;DHT22;36257;46.052;12.540;2022-07-18T14:44:01;35.20;47.40
40932;DHT22;36257;46.052;12.540;2022-07-18T14:46:27;35.20;48.50
40932;DHT22;36257;46.052;12.540;2022-07-18T14:48:52;35.20;48.70
40932;DHT22;36257;46.052;12.540;2022-07-18T14:51:18;35.10;48.60
40932;DHT22;36257;46.052;12.540;2022-07-18T14:53:44;34.80;48.80
40932;DHT22;36257;46.052;12.540;2022-07-18T14:56:10;34.70;49.10
40932;DHT22;36257;46.052;12.540;2022-07-18T14:58:36;34.60;49.10
40932;DHT22;36257;46.052;12.540;2022-07-18T15:01:01;34.40;49.50
40932;DHT22;36257;46.052;12.540;2022-07-18T15:03:27;34.20;48.90
40932;DHT22;36257;46.052;12.540;2022-07-18T15:05:52;34.20;49.00
40932;DHT22;36257;46.052;12.540;2022-07-18T15:08:18;34.20;49.20
40932;DHT22;36257;46.052;12.540;2022-07-18T15:10:43;34.20;49.30
40932;DHT22;36257;46.052;12.540;2022-07-18T15:13:09;34.40;49.10
40932;DHT22;36257;46.052;12.540;2022-07-18T15:15:34;34.30;49.00
40932;DHT22;36257;46.052;12.540;2022-07-18T15:18:00;34.20;50.20
40932;DHT22;36257;46.052;12.540;2022-07-18T15:20:25;34.00;50.10
40932;DHT22;36257;46.052;12.540;2022-07-18T15:22:51;34.00;49.40
40932;DHT22;36257;46.052;12.540;2022-07-18T15:25:16;33.90;50.40
40932;DHT22;36257;46.052;12.540;2022-07-18T15:27:42;33.90;50.00
40932;DHT22;36257;46.052;12.540;2022-07-18T15:30:08;33.90;50.40
40932;DHT22;36257;46.052;12.540;2022-07-18T15:32:33;33.90;49.80
40932;DHT22;36257;46.052;12.540;2022-07-18T15:34:59;33.80;50.30
40932;DHT22;36257;46.052;12.540;2022-07-18T15:37:24;33.90;50.90
40932;DHT22;36257;46.052;12.540;2022-07-18T15:39:53;33.80;50.20
40932;DHT22;36257;46.052;12.540;2022-07-18T15:42:25;33.70;50.00
40932;DHT22;36257;46.052;12.540;2022-07-18T15:44:51;33.70;50.20
40932;DHT22;36257;46.052;12.540;2022-07-18T15:47:17;33.70;50.30
40932;DHT22;36257;46.052;12.540;2022-07-18T15:49:42;33.70;49.80
40932;DHT22;36257;46.052;12.540;2022-07-18T15:52:08;33.30;50.80
40932;DHT22;36257;46.052;12.540;2022-07-18T15:54:34;33.20;51.90
40932;DHT22;36257;46.052;12.540;2022-07-18T15:57:00;33.20;51.30
40932;DHT22;36257;46.052;12.540;2022-07-18T15:59:26;33.20;51.20
40932;DHT22;36257;46.052;12.540;2022-07-18T16:01:51;33.20;51.30
40932;DHT22;36257;46.052;12.540;2022-07-18T16:04:17;33.10;51.90
40932;DHT22;36257;46.052;12.540;2022-07-18T16:06:43;32.90;51.70
40932;DHT22;36257;46.052;12.540;2022-07-18T16:09:09;32.80;51.90